Time;durP1;ratioP1;P1;durP2;ratioP2;P2;SDS_P1;SDS_P2;PMS_P1;PMS_P2;Temp;Humidity;BMP_temperature;BMP_pressure;BME280_temperature;BME280_humidity;BME280_pressure;Samples;Min_cycle;Max_cycle;Signal;HPM_P1;HPM_P2
2021/05/28 00:01:54;;;;;;;25.17;11.13;;;10.00;99.90;;;;;;5093829;28;20030;-68
2021/05/28 00:04:20;;;;;;;27.25;10.68;;;10.00;99.90;;;;;;5092290;28;20401;-69
2021/05/28 00:06:46;;;;;;;19.90;10.55;;;10.00;99.90;;;;;;5092445;28;20016;-68
2021/05/28 00:09:11;;;;;;;23.13;10.23;;;10.00;99.90;;;;;;5093497;28;20099;-68
2021/05/28 00:11:38;;;;;;;20.30;10.30;;;10.00;99.90;;;;;;5092625;28;20024;-68
2021/05/28 00:14:05;;;;;;;20.20;10.43;;;10.00;99.90;;;;;;5093875;28;20485;-68
2021/05/28 00:16:30;;;;;;;22.17;10.38;;;10.00;99.90;;;;;;5076131;28;20536;-69
2021/05/28 00:18:56;;;;;;;22.80;9.88;;;10.00;99.90;;;;;;5093745;28;20107;-68
2021/05/28 00:21:22;;;;;;;27.40;11.27;;;10.00;99.90;;;;;;5093094;28;20028;-68
2021/05/28 00:23:48;;;;;;;21.48;11.02;;;10.00;99.90;;;;;;5093199;28;20055;-69
2021/05/28 00:26:14;;;;;;;17.85;10.63;;;9.90;99.90;;;;;;5091913;28;20016;-69
2021/05/28 00:28:40;;;;;;;23.63;11.02;;;10.00;99.90;;;;;;5093484;28;20027;-68
2021/05/28 00:31:05;;;;;;;21.63;11.68;;;10.00;99.90;;;;;;5109954;28;20028;-69
2021/05/28 00:33:31;;;;;;;25.83;11.13;;;10.00;99.90;;;;;;5097481;28;20473;-69
2021/05/28 00:35:56;;;;;;;23.83;11.68;;;10.00;99.90;;;;;;5096655;28;20032;-69
2021/05/28 00:38:22;;;;;;;20.48;11.57;;;10.00;99.90;;;;;;5096123;28;20028;-69
2021/05/28 00:40:48;;;;;;;21.38;11.48;;;10.00;99.90;;;;;;5097007;28;20032;-69
2021/05/28 00:43:13;;;;;;;21.25;10.10;;;10.10;99.90;;;;;;5096553;28;20062;-68
2021/05/28 00:45:39;;;;;;;21.65;10.98;;;10.10;99.90;;;;;;5078390;28;20108;-68
2021/05/28 00:48:05;;;;;;;21.25;11.88;;;10.10;99.90;;;;;;5095202;28;20385;-68
2021/05/28 00:50:31;;;;;;;19.92;11.20;;;10.00;99.90;;;;;;5096889;28;20024;-68
2021/05/28 00:52:58;;;;;;;16.95;10.77;;;10.00;99.90;;;;;;5096598;28;20024;-68
2021/05/28 00:55:25;;;;;;;20.52;9.07;;;10.00;99.90;;;;;;5096554;28;20020;-68
2021/05/28 00:57:52;;;;;;;23.65;11.00;;;10.10;99.90;;;;;;5096511;28;20458;-68
2021/05/28 01:00:19;;;;;;;18.08;10.18;;;10.00;99.90;;;;;;5095574;28;20020;-68
2021/05/28 01:02:45;;;;;;;21.00;10.20;;;10.10;99.90;;;;;;5094977;28;20020;-68
2021/05/28 01:05:11;;;;;;;16.00;10.07;;;10.10;99.90;;;;;;5096858;28;20103;-69
2021/05/28 01:07:36;;;;;;;18.75;9.18;;;10.10;99.90;;;;;;5096581;28;20411;-68
2021/05/28 01:10:03;;;;;;;16.25;9.43;;;10.10;99.90;;;;;;5095088;28;20153;-68
2021/05/28 01:12:29;;;;;;;21.67;9.88;;;10.10;99.90;;;;;;5096203;28;20020;-68
2021/05/28 01:14:54;;;;;;;25.10;9.50;;;10.10;99.90;;;;;;5096211;28;20095;-68
2021/05/28 01:17:21;;;;;;;22.63;9.52;;;10.10;99.90;;;;;;5095766;28;20028;-69
2021/05/28 01:19:47;;;;;;;20.58;9.18;;;10.10;99.90;;;;;;5096076;28;20443;-68
2021/05/28 01:22:12;;;;;;;25.00;10.55;;;10.00;99.90;;;;;;5096323;28;20023;-68
2021/05/28 01:24:38;;;;;;;20.10;10.18;;;9.90;99.90;;;;;;5095522;28;20076;-69
2021/05/28 01:27:04;;;;;;;21.70;9.32;;;9.80;99.90;;;;;;5096497;28;20028;-68
2021/05/28 01:29:29;;;;;;;22.58;9.85;;;9.80;99.90;;;;;;5095174;28;20432;-68
2021/05/28 01:31:55;;;;;;;15.98;9.55;;;9.70;99.90;;;;;;5094413;28;20059;-68
2021/05/28 01:34:21;;;;;;;22.92;10.00;;;9.60;99.90;;;;;;5096099;28;20028;-68
2021/05/28 01:36:46;;;;;;;17.58;9.55;;;9.60;99.90;;;;;;5094372;28;20024;-68
2021/05/28 01:39:12;;;;;;;21.42;9.95;;;9.50;99.90;;;;;;5094558;28;20388;-68
2021/05/28 01:41:38;;;;;;;27.83;10.30;;;9.40;99.90;;;;;;5095353;28;20031;-68
2021/05/28 01:44:11;;;;;;;27.60;10.55;;;9.30;99.90;;;;;;5094637;28;20038;-68
2021/05/28 01:46:37;;;;;;;23.63;11.60;;;9.20;99.90;;;;;;5095872;28;20107;-68
2021/05/28 01:49:03;;;;;;;16.08;10.88;;;9.10;99.90;;;;;;5095548;28;20032;-68
2021/05/28 01:51:31;;;;;;;23.13;12.05;;;9.00;99.90;;;;;;5095439;28;20027;-68
2021/05/28 01:53:56;;;;;;;20.35;10.05;;;9.00;99.90;;;;;;5095266;28;20492;-68
2021/05/28 01:56:23;;;;;;;24.27;10.70;;;9.00;99.90;;;;;;5094569;28;20028;-68
2021/05/28 01:58:48;;;;;;;20.75;10.70;;;8.80;99.90;;;;;;5094343;28;20457;-68
2021/05/28 02:01:14;;;;;;;17.58;10.18;;;8.70;99.90;;;;;;5095266;28;20032;-68
2021/05/28 02:03:40;;;;;;;16.20;9.68;;;8.60;99.90;;;;;;5094259;28;20059;-68
2021/05/28 02:06:05;;;;;;;20.15;9.65;;;8.40;99.90;;;;;;5095216;28;20034;-68
2021/05/28 02:08:31;;;;;;;19.88;10.10;;;8.30;99.90;;;;;;5094238;28;20028;-68
2021/05/28 02:10:56;;;;;;;14.02;10.57;;;8.20;99.90;;;;;;5094231;28;20020;-69
2021/05/28 02:13:22;;;;;;;18.45;10.60;;;8.10;99.90;;;;;;5094158;28;20024;-69
2021/05/28 02:15:48;;;;;;;17.60;10.52;;;8.00;99.90;;;;;;5095350;28;20028;-68
2021/05/28 02:18:13;;;;;;;16.10;10.27;;;8.00;99.90;;;;;;5095824;28;20020;-69
2021/05/28 02:20:39;;;;;;;20.42;11.40;;;7.90;99.90;;;;;;5094893;28;20048;-70
2021/05/28 02:23:05;;;;;;;21.77;10.98;;;7.90;99.90;;;;;;5094855;28;20031;-68
2021/05/28 02:25:31;;;;;;;21.92;10.85;;;7.80;99.90;;;;;;5094818;28;20024;-68
2021/05/28 02:27:56;;;;;;;24.80;13.45;;;7.70;99.90;;;;;;5095077;28;20390;-68
2021/05/28 02:30:22;;;;;;;18.02;12.48;;;7.70;99.90;;;;;;5094734;28;20040;-68
2021/05/28 02:32:47;;;;;;;25.00;12.65;;;7.70;99.90;;;;;;5094980;28;20016;-68
2021/05/28 02:35:13;;;;;;;28.13;12.98;;;7.60;99.90;;;;;;5094929;28;20024;-68
2021/05/28 02:37:39;;;;;;;27.10;13.43;;;7.60;99.90;;;;;;5093899;28;20031;-68
2021/05/28 02:40:07;;;;;;;27.98;14.45;;;7.50;99.90;;;;;;5094840;28;20488;-68
2021/05/28 02:42:33;;;;;;;24.73;14.43;;;7.50;99.90;;;;;;5092968;28;20036;-68
2021/05/28 02:44:58;;;;;;;25.98;13.70;;;7.50;99.90;;;;;;5094643;28;20469;-68
2021/05/28 02:47:24;;;;;;;33.10;14.52;;;7.50;99.90;;;;;;5094730;28;20074;-68
2021/05/28 02:49:50;;;;;;;25.58;13.80;;;7.50;99.90;;;;;;5094650;28;20028;-68
2021/05/28 02:52:15;;;;;;;25.45;13.85;;;7.40;99.90;;;;;;5094369;28;20070;-68
2021/05/28 02:54:43;;;;;;;21.38;12.88;;;7.40;99.90;;;;;;5092948;28;20027;-68
2021/05/28 02:57:09;;;;;;;25.52;13.43;;;7.30;99.90;;;;;;5094313;28;20020;-68
2021/05/28 02:59:35;;;;;;;29.05;13.07;;;7.30;99.90;;;;;;5094542;28;20020;-68
2021/05/28 03:02:01;;;;;;;21.52;12.45;;;7.20;99.90;;;;;;5094180;28;20036;-68
2021/05/28 03:04:26;;;;;;;20.67;13.02;;;7.10;99.90;;;;;;5094108;28;20106;-68
2021/05/28 03:06:52;;;;;;;23.52;12.82;;;7.10;99.90;;;;;;5094137;28;20100;-69
2021/05/28 03:09:17;;;;;;;18.90;12.27;;;7.10;99.90;;;;;;5093180;28;20021;-68
2021/05/28 03:11:43;;;;;;;23.75;12.73;;;7.10;99.90;;;;;;5094104;28;20028;-68
2021/05/28 03:14:08;;;;;;;21.92;12.02;;;7.00;99.90;;;;;;5094038;28;20480;-68
2021/05/28 03:16:34;;;;;;;27.40;13.90;;;6.90;99.90;;;;;;5094056;28;20031;-68
2021/05/28 03:19:03;;;;;;;26.38;13.30;;;6.80;99.90;;;;;;5092834;28;20456;-68
2021/05/28 03:24:07;;;;;;;27.67;14.00;;;6.80;99.90;;;;;;5112236;27;20384;-68
2021/05/28 03:26:33;;;;;;;26.85;15.55;;;6.70;99.90;;;;;;5111981;28;20023;-67
2021/05/28 03:28:59;;;;;;;27.55;15.98;;;6.70;99.90;;;;;;5111936;28;20425;-66
2021/05/28 03:31:25;;;;;;;39.20;17.33;;;6.80;99.90;;;;;;5110306;28;20406;-67
2021/05/28 03:33:52;;;;;;;27.42;16.10;;;6.80;99.90;;;;;;5110944;28;20030;-67
2021/05/28 03:36:18;;;;;;;32.50;17.13;;;6.90;99.90;;;;;;5093601;28;20374;-66
2021/05/28 03:38:44;;;;;;;29.75;16.25;;;6.90;99.90;;;;;;5110345;28;20027;-66
2021/05/28 03:41:11;;;;;;;33.22;17.60;;;6.90;99.90;;;;;;5111731;28;20035;-67
2021/05/28 03:43:37;;;;;;;26.23;16.48;;;6.90;99.90;;;;;;5111288;28;20016;-67
2021/05/28 03:46:03;;;;;;;27.80;16.90;;;6.90;99.90;;;;;;5111660;28;20047;-67
2021/05/28 03:48:30;;;;;;;31.23;18.05;;;6.90;99.90;;;;;;5092339;28;20047;-67
2021/05/28 03:50:55;;;;;;;33.40;18.27;;;6.90;99.90;;;;;;5092748;28;20031;-67
2021/05/28 03:53:21;;;;;;;36.17;18.92;;;7.00;99.90;;;;;;5111463;28;20024;-67
2021/05/28 03:55:47;;;;;;;36.45;18.92;;;7.00;99.90;;;;;;5111235;28;20076;-67
2021/05/28 03:58:13;;;;;;;34.20;18.75;;;7.10;99.90;;;;;;5092998;28;20381;-67
2021/05/28 04:00:38;;;;;;;39.95;20.02;;;7.20;99.90;;;;;;5110721;28;20042;-67
2021/05/28 04:03:04;;;;;;;98.18;22.88;;;7.20;99.90;;;;;;5110875;28;20092;-67
2021/05/28 04:05:30;;;;;;;92.30;21.42;;;7.30;99.90;;;;;;5111221;28;20020;-67
2021/05/28 04:07:55;;;;;;;75.18;21.70;;;7.40;99.90;;;;;;5110942;28;20082;-67
2021/05/28 04:10:21;;;;;;;225.25;27.38;;;7.40;99.90;;;;;;5109646;28;20373;-66
2021/05/28 04:12:46;;;;;;;304.48;28.45;;;7.50;99.90;;;;;;5111022;28;20457;-69
2021/05/28 04:15:12;;;;;;;285.73;26.20;;;7.60;99.90;;;;;;5110701;28;20042;-66
2021/05/28 04:17:38;;;;;;;217.65;22.67;;;7.60;99.90;;;;;;5110431;28;20115;-68
2021/05/28 04:20:05;;;;;;;184.32;22.15;;;7.60;99.90;;;;;;5109261;28;20051;-68
2021/05/28 04:22:30;;;;;;;90.50;18.58;;;7.70;99.90;;;;;;5108939;28;20044;-68
2021/05/28 04:24:56;;;;;;;83.50;18.33;;;7.70;99.90;;;;;;5110619;28;20032;-68
2021/05/28 04:27:21;;;;;;;77.60;18.17;;;7.70;99.90;;;;;;5092831;28;20077;-68
2021/05/28 04:29:47;;;;;;;72.68;18.95;;;7.80;99.90;;;;;;5110753;28;20016;-68
2021/05/28 04:32:13;;;;;;;46.78;17.30;;;7.90;99.90;;;;;;5110458;28;20027;-68
2021/05/28 04:34:39;;;;;;;52.58;17.70;;;8.00;99.90;;;;;;5101508;28;20111;-68
2021/05/28 04:37:05;;;;;;;26.92;17.63;;;8.00;99.90;;;;;;5096487;28;20535;-68
2021/05/28 04:39:31;;;;;;;28.83;17.98;;;8.10;99.90;;;;;;5096949;28;20024;-68
2021/05/28 04:41:57;;;;;;;41.83;18.55;;;8.20;99.90;;;;;;5095432;28;20157;-68
2021/05/28 04:44:23;;;;;;;56.90;19.35;;;8.30;99.90;;;;;;5096618;28;20461;-66
2021/05/28 04:46:49;;;;;;;59.65;19.25;;;8.30;99.90;;;;;;5096606;28;20447;-66
2021/05/28 04:49:14;;;;;;;57.38;18.73;;;8.30;99.90;;;;;;5078685;28;20024;-66
2021/05/28 04:51:40;;;;;;;55.45;20.83;;;8.30;99.90;;;;;;5096484;28;20020;-66
2021/05/28 04:54:06;;;;;;;49.17;20.27;;;8.40;99.90;;;;;;5096709;28;20020;-68
2021/05/28 04:56:32;;;;;;;37.47;18.60;;;8.50;99.90;;;;;;5094902;28;20564;-68
2021/05/28 04:58:58;;;;;;;37.03;18.73;;;8.60;99.90;;;;;;5094898;28;20020;-68
2021/05/28 05:01:23;;;;;;;35.28;20.60;;;8.70;99.90;;;;;;5095976;28;20097;-67
2021/05/28 05:03:49;;;;;;;40.30;20.70;;;8.70;99.90;;;;;;5095323;28;20113;-68
2021/05/28 05:06:15;;;;;;;34.80;19.60;;;8.70;99.90;;;;;;5096254;28;20448;-68
2021/05/28 05:08:40;;;;;;;33.63;17.98;;;8.80;99.90;;;;;;5095372;28;20031;-68
2021/05/28 05:11:06;;;;;;;35.20;18.92;;;8.80;99.90;;;;;;5096426;28;20079;-68
2021/05/28 05:13:31;;;;;;;30.63;17.52;;;8.80;99.90;;;;;;5096086;28;20029;-68
2021/05/28 05:15:57;;;;;;;37.95;20.77;;;8.80;99.90;;;;;;5094982;28;20024;-69
2021/05/28 05:18:24;;;;;;;38.45;20.77;;;8.80;99.90;;;;;;5077922;28;20020;-67
2021/05/28 05:20:50;;;;;;;35.03;20.08;;;8.90;99.90;;;;;;5096213;28;20020;-68
2021/05/28 05:23:16;;;;;;;34.55;18.75;;;8.90;99.90;;;;;;5095584;28;20040;-66
2021/05/28 05:25:42;;;;;;;30.55;17.67;;;9.10;99.90;;;;;;5095844;28;20107;-68
2021/05/28 05:28:07;;;;;;;31.38;18.67;;;9.20;99.90;;;;;;5094617;28;20025;-68
2021/05/28 05:30:39;;;;;;;31.17;17.98;;;9.20;99.90;;;;;;5095748;28;20062;-68
2021/05/28 05:33:05;;;;;;;28.15;17.20;;;9.10;99.90;;;;;;5095733;28;20024;-68
2021/05/28 05:35:30;;;;;;;25.80;17.17;;;9.20;99.90;;;;;;5095677;28;20035;-68
2021/05/28 05:37:56;;;;;;;33.00;18.73;;;9.20;99.90;;;;;;5096098;28;20031;-68
2021/05/28 05:40:21;;;;;;;31.63;16.40;;;9.20;99.90;;;;;;5094705;28;20465;-68
2021/05/28 05:42:48;;;;;;;33.67;16.75;;;9.20;99.90;;;;;;5078333;28;20031;-68
2021/05/28 05:45:15;;;;;;;29.80;17.08;;;9.20;99.90;;;;;;5096207;28;20020;-68
2021/05/28 05:47:41;;;;;;;23.90;15.40;;;9.30;99.90;;;;;;5095155;28;20376;-68
2021/05/28 05:50:08;;;;;;;27.70;15.70;;;9.30;99.90;;;;;;5095477;28;20023;-68
2021/05/28 05:52:33;;;;;;;42.67;15.57;;;9.40;99.90;;;;;;5094169;28;20028;-68
2021/05/28 05:54:59;;;;;;;27.73;16.05;;;9.40;99.90;;;;;;5095225;28;20522;-67
2021/05/28 05:57:25;;;;;;;25.70;16.25;;;9.40;99.90;;;;;;5093721;28;20120;-67
2021/05/28 05:59:51;;;;;;;28.55;15.48;;;9.60;99.90;;;;;;5095323;28;20465;-67
2021/05/28 06:02:16;;;;;;;30.92;16.73;;;9.50;99.90;;;;;;5095012;28;20105;-69
2021/05/28 06:04:42;;;;;;;27.58;16.30;;;9.60;99.90;;;;;;5094308;28;20369;-68
2021/05/28 06:07:08;;;;;;;28.85;15.93;;;9.60;99.90;;;;;;5093018;28;20030;-68
2021/05/28 06:09:33;;;;;;;31.75;16.92;;;9.50;99.90;;;;;;5101895;28;20028;-67
2021/05/28 06:11:59;;;;;;;27.27;16.27;;;9.50;99.90;;;;;;5095011;28;20405;-68
2021/05/28 06:14:26;;;;;;;28.80;16.20;;;9.50;99.90;;;;;;5096755;28;20473;-68
2021/05/28 06:16:52;;;;;;;33.50;19.38;;;9.60;99.90;;;;;;5088083;28;20051;-68
2021/05/28 06:19:18;;;;;;;23.90;15.32;;;9.60;99.90;;;;;;5077648;28;20023;-68
2021/05/28 06:21:44;;;;;;;24.88;16.05;;;9.60;99.90;;;;;;5098125;28;20035;-68
2021/05/28 06:24:10;;;;;;;23.90;15.00;;;9.70;99.90;;;;;;5106696;28;20036;-68
2021/05/28 06:26:36;;;;;;;23.95;14.75;;;9.60;99.90;;;;;;5089204;28;20032;-68
2021/05/28 06:29:03;;;;;;;24.85;14.80;;;9.70;99.90;;;;;;5101047;28;20032;-68
2021/05/28 06:31:29;;;;;;;29.42;15.68;;;9.70;99.90;;;;;;5093602;28;20020;-68
2021/05/28 06:33:55;;;;;;;25.20;15.23;;;9.60;99.90;;;;;;5094032;28;20012;-68
2021/05/28 06:36:22;;;;;;;22.60;14.23;;;9.60;99.90;;;;;;5093613;28;20028;-68
2021/05/28 06:38:47;;;;;;;25.73;14.25;;;9.50;99.90;;;;;;5100428;28;20054;-68
2021/05/28 06:41:13;;;;;;;23.17;14.32;;;9.60;99.90;;;;;;5101238;28;20036;-68
2021/05/28 06:43:39;;;;;;;20.27;14.38;;;9.60;99.90;;;;;;5100949;28;20024;-67
2021/05/28 06:46:04;;;;;;;19.65;13.88;;;9.70;99.90;;;;;;5092846;28;20052;-68
2021/05/28 06:48:30;;;;;;;22.52;14.82;;;9.80;99.90;;;;;;5092412;28;20385;-66
2021/05/28 06:50:55;;;;;;;22.17;13.80;;;9.70;99.90;;;;;;5087665;28;20081;-66
2021/05/28 06:53:21;;;;;;;19.02;13.40;;;9.80;99.90;;;;;;5091723;28;20028;-66
2021/05/28 06:55:47;;;;;;;22.25;14.23;;;9.80;99.90;;;;;;5095366;28;20026;-68
2021/05/28 06:58:13;;;;;;;19.77;13.98;;;9.70;99.90;;;;;;5093720;28;20079;-67
2021/05/28 07:00:38;;;;;;;16.60;12.60;;;9.80;99.90;;;;;;5094079;28;20028;-67
2021/05/28 07:03:04;;;;;;;24.55;12.50;;;9.80;99.90;;;;;;5093800;28;20389;-65
2021/05/28 07:05:30;;;;;;;20.33;13.13;;;9.80;99.90;;;;;;5092803;28;20027;-66
2021/05/28 07:07:56;;;;;;;19.63;13.40;;;9.60;99.90;;;;;;5091974;28;20068;-67
2021/05/28 07:10:22;;;;;;;31.73;18.27;;;9.60;99.90;;;;;;5092370;28;20016;-69
2021/05/28 07:12:51;;;;;;;21.27;15.10;;;9.60;99.90;;;;;;5092091;28;20028;-69
2021/05/28 07:15:38;;;;;;;21.73;13.88;;;9.70;99.90;;;;;;5073459;28;20024;-69
2021/05/28 07:18:04;;;;;;;19.45;13.07;;;9.50;99.90;;;;;;5091922;28;20032;-69
2021/05/28 07:20:30;;;;;;;17.38;12.88;;;9.70;99.90;;;;;;5093238;28;20043;-70
2021/05/28 07:22:55;;;;;;;18.27;12.40;;;9.80;99.90;;;;;;5091481;28;20044;-69
2021/05/28 07:25:21;;;;;;;19.73;12.65;;;9.80;99.90;;;;;;5072477;28;20024;-70
2021/05/28 07:27:47;;;;;;;18.23;12.80;;;9.70;99.90;;;;;;5059144;28;20473;-69
2021/05/28 07:30:13;;;;;;;17.15;12.05;;;9.70;99.90;;;;;;5092796;28;20500;-69
2021/05/28 07:32:40;;;;;;;16.83;12.38;;;9.50;99.90;;;;;;5074766;28;20039;-69
2021/05/28 07:35:07;;;;;;;13.43;11.50;;;9.50;99.90;;;;;;5070181;28;20055;-71
2021/05/28 07:37:33;;;;;;;17.05;12.30;;;9.50;99.90;;;;;;5092791;28;20032;-70
2021/05/28 07:40:29;;;;;;;14.77;11.02;;;9.70;99.90;;;;;;5070128;28;20032;-70
2021/05/28 07:42:55;;;;;;;15.00;10.55;;;9.80;99.90;;;;;;5084671;28;20044;-71
2021/05/28 07:45:20;;;;;;;16.88;11.27;;;9.90;99.90;;;;;;5090663;28;20031;-71
2021/05/28 07:47:46;;;;;;;14.00;10.60;;;9.90;99.90;;;;;;5091470;28;20081;-72
2021/05/28 07:50:12;;;;;;;14.95;10.95;;;9.90;99.90;;;;;;5065091;28;20059;-70
2021/05/28 07:52:42;;;;;;;15.90;11.32;;;9.90;99.90;;;;;;5090560;28;20056;-64
2021/05/28 07:55:11;;;;;;;13.85;11.20;;;9.90;99.90;;;;;;5075015;28;20119;-64
2021/05/28 07:57:38;;;;;;;14.27;10.93;;;10.10;99.90;;;;;;5070453;28;20030;-68
2021/05/28 08:00:06;;;;;;;14.38;10.50;;;10.40;99.90;;;;;;5091955;28;20056;-70
2021/05/28 08:02:32;;;;;;;14.10;11.07;;;10.50;99.90;;;;;;5090582;28;20473;-70
2021/05/28 08:04:58;;;;;;;14.40;11.05;;;10.30;99.90;;;;;;5091283;28;20081;-71
2021/05/28 08:07:23;;;;;;;14.65;10.75;;;10.50;99.90;;;;;;5091774;28;20020;-71
2021/05/28 08:09:50;;;;;;;14.27;10.55;;;10.60;99.90;;;;;;5092827;28;20523;-71
2021/05/28 08:12:16;;;;;;;16.48;11.05;;;10.60;99.90;;;;;;5077608;28;20020;-71
2021/05/28 08:14:42;;;;;;;16.38;11.23;;;10.50;99.90;;;;;;5064837;28;20103;-71
2021/05/28 08:17:08;;;;;;;16.77;11.15;;;10.70;99.90;;;;;;5087648;28;20035;-69
2021/05/28 08:19:34;;;;;;;16.75;11.38;;;10.70;99.90;;;;;;5077848;28;20028;-68
2021/05/28 08:22:00;;;;;;;14.82;11.18;;;10.90;99.90;;;;;;5093907;28;20040;-69
2021/05/28 08:24:26;;;;;;;13.57;10.80;;;11.00;99.90;;;;;;5071699;28;20030;-70
2021/05/28 08:26:51;;;;;;;13.85;10.75;;;11.30;99.90;;;;;;5074154;28;20021;-70
2021/05/28 08:29:17;;;;;;;13.75;10.38;;;11.60;99.90;;;;;;5091642;28;20032;-69
2021/05/28 08:31:43;;;;;;;16.13;11.15;;;11.80;99.90;;;;;;5095001;28;20097;-70
2021/05/28 08:34:09;;;;;;;14.05;10.73;;;11.70;99.90;;;;;;5094826;28;20028;-69
2021/05/28 08:36:35;;;;;;;14.82;11.00;;;11.70;99.90;;;;;;5073286;28;20028;-70
2021/05/28 08:39:00;;;;;;;12.18;9.10;;;12.30;99.90;;;;;;5079887;28;20016;-68
2021/05/28 08:41:27;;;;;;;10.77;8.75;;;13.50;99.90;;;;;;5077298;28;20070;-72
2021/05/28 08:43:53;;;;;;;10.90;9.02;;;14.80;99.90;;;;;;5094568;28;20024;-70
2021/05/28 08:46:21;;;;;;;11.57;8.65;;;15.10;99.90;;;;;;5094281;28;20031;-70
2021/05/28 08:48:51;;;;;;;10.52;8.20;;;15.40;99.90;;;;;;5070340;28;20024;-70
2021/05/28 08:51:17;;;;;;;11.68;8.88;;;15.60;99.90;;;;;;5076976;28;20028;-70
2021/05/28 08:53:43;;;;;;;10.85;8.50;;;14.70;99.90;;;;;;5075718;28;20408;-70
2021/05/28 08:56:10;;;;;;;11.95;8.63;;;14.50;99.90;;;;;;5094724;28;20020;-70
2021/05/28 08:58:36;;;;;;;11.65;8.05;;;15.20;99.90;;;;;;5070955;28;20050;-70
2021/05/28 09:01:02;;;;;;;9.50;7.90;;;16.20;99.90;;;;;;5093257;28;20111;-70
2021/05/28 09:03:30;;;;;;;9.20;7.20;;;16.30;99.90;;;;;;5093236;28;20026;-71
2021/05/28 09:06:00;;;;;;;9.63;7.15;;;16.60;99.90;;;;;;5068796;28;20120;-71
2021/05/28 09:08:30;;;;;;;10.35;8.18;;;17.10;99.90;;;;;;5092958;28;20091;-74
2021/05/28 09:11:17;;;;;;;9.27;8.00;;;17.00;99.90;;;;;;5093527;28;20024;-70
2021/05/28 09:13:50;;;;;;;8.23;7.43;;;17.60;99.90;;;;;;5092280;28;20373;-70
2021/05/28 09:16:18;;;;;;;7.78;6.97;;;17.70;99.90;;;;;;5094539;28;20486;-71
2021/05/28 09:18:51;;;;;;;10.65;7.10;;;17.90;99.90;;;;;;5086612;28;20024;-70
2021/05/28 09:21:35;;;;;;;8.18;6.70;;;17.70;99.90;;;;;;5094378;28;21347;-71
2021/05/28 09:24:01;;;;;;;;;;;17.80;99.90;;;;;;5095487;28;20036;-70
2021/05/28 09:26:29;;;;;;;7.82;7.05;;;17.80;99.90;;;;;;5095185;28;19908;-70
2021/05/28 09:28:55;;;;;;;9.70;7.22;;;18.00;99.90;;;;;;5094114;28;20022;-71
2021/05/28 09:31:23;;;;;;;9.05;7.50;;;18.70;99.90;;;;;;5094543;28;20020;-70
2021/05/28 09:33:52;;;;;;;7.80;7.00;;;19.20;99.90;;;;;;5093258;28;20046;-71
2021/05/28 09:36:22;;;;;;;8.23;6.70;;;19.40;99.90;;;;;;5092365;28;20160;-71
2021/05/28 09:39:15;;;;;;;8.70;7.13;;;19.20;99.90;;;;;;5094463;28;20032;-71
2021/05/28 09:41:50;;;;;;;6.63;5.93;;;20.00;99.90;;;;;;5085475;28;20028;-71
2021/05/28 09:44:21;;;;;;;6.20;5.60;;;20.10;99.90;;;;;;5094159;28;20111;-71
2021/05/28 09:47:06;;;;;;;7.00;6.30;;;20.20;99.90;;;;;;5093391;28;20023;-71
2021/05/28 09:49:37;;;;;;;7.10;5.60;;;20.70;99.90;;;;;;5093717;28;20377;-71
2021/05/28 09:52:21;;;;;;;5.90;5.30;;;20.70;99.90;;;;;;5093032;28;20032;-71
2021/05/28 09:55:08;;;;;;;6.00;5.47;;;20.50;99.90;;;;;;5093672;28;20020;-71
2021/05/28 09:57:37;;;;;;;6.10;5.40;;;20.80;99.90;;;;;;5092293;28;20026;-71
2021/05/28 10:02:49;;;;;;;6.07;4.88;;;21.40;99.90;;;;;;5069414;28;20444;-71
2021/05/28 10:05:24;;;;;;;5.88;5.13;;;21.60;99.90;;;;;;5070032;28;20352;-71
2021/05/28 10:07:50;;;;;;;6.07;5.15;;;21.40;99.90;;;;;;5069489;28;20451;-71
2021/05/28 10:10:17;;;;;;;5.75;5.20;;;20.70;99.90;;;;;;5068401;28;20109;-71
2021/05/28 10:12:45;;;;;;;5.15;4.65;;;20.80;99.90;;;;;;5069522;28;20116;-71
2021/05/28 10:15:12;;;;;;;6.68;5.20;;;20.90;99.90;;;;;;5070124;28;20056;-71
2021/05/28 10:17:38;;;;;;;5.88;5.22;;;20.70;99.90;;;;;;5069519;28;20107;-71
2021/05/28 10:20:05;;;;;;;5.57;5.07;;;20.80;99.90;;;;;;5069709;28;20497;-71
2021/05/28 10:22:31;;;;;;;5.35;4.85;;;21.20;99.90;;;;;;5069319;28;20035;-71
2021/05/28 10:24:56;;;;;;;6.55;4.50;;;21.80;99.90;;;;;;5069434;28;20029;-71
2021/05/28 10:27:24;;;;;;;5.00;4.50;;;22.20;99.90;;;;;;5069189;28;20036;-71
2021/05/28 10:29:52;;;;;;;4.07;3.72;;;21.90;99.90;;;;;;5069559;28;20474;-71
2021/05/28 10:32:19;;;;;;;4.40;3.47;;;21.70;99.90;;;;;;5068643;28;20112;-71
2021/05/28 10:35:09;;;;;;;5.03;3.67;;;22.10;99.90;;;;;;5069265;28;20025;-71
2021/05/28 10:37:36;;;;;;;4.82;3.85;;;22.50;99.90;;;;;;5069372;28;20025;-71
2021/05/28 10:40:21;;;;;;;4.78;4.38;;;22.20;99.90;;;;;;5069036;28;20060;-71
2021/05/28 10:43:05;;;;;;;5.55;5.10;;;21.30;99.90;;;;;;5069092;28;20095;-71
2021/05/28 10:45:58;;;;;;;4.80;4.28;;;20.50;99.90;;;;;;5069033;28;20029;-71
2021/05/28 10:56:41;;;;;;;7.43;5.60;;;20.30;99.90;;;;;;5110141;27;20308;-71
2021/05/28 10:59:22;;;;;;;5.93;5.05;;;19.50;99.90;;;;;;5096123;28;20039;-73
2021/05/28 11:01:52;;;;;;;4.07;3.58;;;19.20;99.90;;;;;;5086515;28;20031;-71
2021/05/28 11:04:24;;;;;;;4.95;4.22;;;19.20;99.90;;;;;;5095071;28;20762;-71
2021/05/28 11:12:15;;;;;;;6.72;4.50;;;19.10;99.90;;;;;;5069607;28;20365;-71
2021/05/28 11:15:04;;;;;;;5.68;4.10;;;19.80;99.90;;;;;;5050704;28;20025;-70
2021/05/28 11:17:30;;;;;;;4.40;4.00;;;19.20;99.90;;;;;;5050600;28;20029;-70
2021/05/28 11:20:03;;;;;;;5.68;4.10;;;19.00;99.90;;;;;;5050964;28;20036;-70
2021/05/28 11:22:34;;;;;;;5.00;4.55;;;19.60;99.90;;;;;;5045746;28;20040;-71
2021/05/28 11:25:06;;;;;;;5.68;5.18;;;19.30;99.90;;;;;;5051857;28;20053;-71
2021/05/28 11:32:49;;;;;;;5.63;5.10;;;19.30;99.90;;;;;;5089635;27;20362;-71
2021/05/28 11:35:19;;;;;;;6.03;5.03;;;19.40;99.90;;;;;;5088240;28;20064;-71
2021/05/28 11:37:57;;;;;;;5.85;5.25;;;19.60;99.90;;;;;;5087604;28;20021;-71
2021/05/28 11:40:37;;;;;;;5.60;5.03;;;19.90;99.90;;;;;;5088549;28;20104;-71
2021/05/28 11:43:12;;;;;;;6.72;4.30;;;19.70;99.90;;;;;;5086761;28;20429;-71
2021/05/28 11:45:50;;;;;;;8.27;4.20;;;19.60;99.90;;;;;;5088228;28;20024;-71
2021/05/28 11:48:19;;;;;;;7.70;4.75;;;18.90;99.90;;;;;;5087568;28;20070;-71
2021/05/28 11:50:48;;;;;;;11.93;9.23;;;19.30;99.90;;;;;;5087896;28;20028;-71
2021/05/28 11:53:14;;;;;;;6.40;4.07;;;19.60;99.90;;;;;;5089099;28;20107;-71
2021/05/28 11:55:52;;;;;;;4.57;4.18;;;20.00;99.90;;;;;;5088240;28;20414;-71
2021/05/28 11:58:21;;;;;;;6.75;4.45;;;19.50;99.90;;;;;;5087425;28;20023;-71
2021/05/28 12:00:49;;;;;;;5.13;4.63;;;19.50;99.90;;;;;;5089356;28;20020;-71
2021/05/28 12:03:15;;;;;;;5.30;4.25;;;19.50;99.90;;;;;;5087665;28;20085;-71
2021/05/28 12:05:44;;;;;;;4.15;3.75;;;18.60;99.90;;;;;;5091976;28;20140;-71
2021/05/28 12:10:51;;;;;;;5.35;3.60;;;18.60;99.90;;;;;;5110035;27;20550;-71
2021/05/28 12:13:19;;;;;;;4.90;4.43;;;19.20;99.90;;;;;;5109483;28;20012;-71
2021/05/28 12:15:50;;;;;;;7.82;5.22;;;19.40;99.90;;;;;;5110523;28;20027;-72
2021/05/28 12:18:21;;;;;;;7.28;5.00;;;19.10;99.90;;;;;;5107735;28;20020;-72
2021/05/28 12:20:55;;;;;;;5.90;4.70;;;18.90;99.90;;;;;;5107801;28;20020;-73
2021/05/28 12:23:25;;;;;;;5.32;4.18;;;19.30;99.90;;;;;;5109616;28;20028;-70
2021/05/28 12:28:37;;;;;;;4.65;4.18;;;19.80;99.90;;;;;;5069817;28;20357;-73
2021/05/28 12:31:14;;;;;;;5.00;3.35;;;19.90;99.90;;;;;;5068430;28;20033;-72
2021/05/28 12:33:43;;;;;;;4.95;3.47;;;19.50;99.90;;;;;;5068951;28;20017;-72
2021/05/28 12:36:12;;;;;;;4.88;3.83;;;19.80;99.90;;;;;;5069501;28;20474;-72
2021/05/28 12:38:41;;;;;;;5.97;4.47;;;20.00;99.90;;;;;;5068484;28;20052;-73
2021/05/28 12:41:10;;;;;;;3.60;3.30;;;19.80;99.90;;;;;;5069503;28;20021;-73
2021/05/28 12:43:40;;;;;;;4.47;2.60;;;20.00;99.90;;;;;;5069352;28;20020;-71
2021/05/28 12:46:16;;;;;;;3.60;3.15;;;20.00;99.90;;;;;;5069740;28;20021;-71
2021/05/28 12:48:45;;;;;;;5.50;3.58;;;19.70;99.90;;;;;;5069141;28;20028;-71
2021/05/28 12:51:13;;;;;;;6.15;2.97;;;19.80;99.90;;;;;;5068609;28;20017;-71
2021/05/28 12:53:40;;;;;;;3.75;3.08;;;20.00;99.90;;;;;;5068885;28;20374;-71
2021/05/28 12:56:07;;;;;;;4.25;3.33;;;20.70;99.90;;;;;;5068913;28;20537;-72
2021/05/28 12:58:33;;;;;;;3.70;2.38;;;20.60;99.90;;;;;;5069125;28;20033;-71
2021/05/28 13:01:05;;;;;;;2.80;2.45;;;20.00;99.70;;;;;;5069261;28;20458;-71
2021/05/28 13:03:33;;;;;;;2.38;1.95;;;19.30;99.90;;;;;;5068223;28;20474;-71
2021/05/28 13:05:59;;;;;;;1.77;1.67;;;19.20;99.90;;;;;;5070094;28;20032;-71
2021/05/28 13:08:32;;;;;;;3.08;2.30;;;19.60;99.90;;;;;;5068617;28;20029;-72
2021/05/28 13:10:58;;;;;;;2.70;2.50;;;19.20;99.20;;;;;;5067523;28;20032;-71